createdAt,value
2018-12-16T00:01:04.873Z,97654.80
2018-12-16T00:03:32.356Z,97653.72
2018-12-16T00:05:59.856Z,97644.55
2018-12-16T00:08:27.365Z,97635.30
2018-12-16T00:10:54.868Z,97627.84
2018-12-16T00:13:22.348Z,97619.74
2018-12-16T00:15:49.841Z,97618.98
2018-12-16T00:18:17.323Z,97617.13
2018-12-16T00:20:44.824Z,97606.61
2018-12-16T00:23:12.316Z,97596.92
2018-12-16T00:25:39.828Z,97590.34
2018-12-16T00:28:07.315Z,97590.48
2018-12-16T00:30:34.777Z,97588.85
2018-12-16T00:33:02.298Z,97597.34
2018-12-16T00:35:29.769Z,97403.20
2018-12-16T00:37:57.245Z,97589.72
2018-12-16T00:40:24.726Z,97583.34
2018-12-16T00:42:52.208Z,97593.27
2018-12-16T00:45:19.687Z,97599.64
2018-12-16T00:47:47.611Z,97595.15
2018-12-16T00:50:15.204Z,97604.83
2018-12-16T00:52:42.711Z,97596.05
2018-12-16T00:55:10.199Z,97592.36
2018-12-16T00:57:37.690Z,97587.73
2018-12-16T01:00:09.579Z,97588.31
2018-12-16T01:02:41.644Z,97587.08
2018-12-16T01:05:09.788Z,97590.44
2018-12-16T01:07:37.278Z,97594.49
2018-12-16T01:10:06.535Z,97601.25
2018-12-16T01:12:34.038Z,97604.17
2018-12-16T01:15:01.520Z,97604.36
2018-12-16T01:17:28.990Z,97591.42
2018-12-16T01:19:56.466Z,97578.48
2018-12-16T01:22:23.972Z,97558.12
2018-12-16T01:24:51.450Z,97534.13
2018-12-16T01:27:18.938Z,97530.41
2018-12-16T01:29:46.481Z,97514.75
2018-12-16T01:32:13.966Z,97515.31
2018-12-16T01:34:42.207Z,97507.63
2018-12-16T01:37:09.760Z,97500.98
2018-12-16T01:39:37.250Z,97484.95
2018-12-16T01:42:04.737Z,97472.88
2018-12-16T01:44:32.227Z,97462.13
2018-12-16T01:46:59.700Z,97468.67
2018-12-16T01:49:27.214Z,97464.33
2018-12-16T01:51:54.725Z,97462.07
2018-12-16T01:54:22.199Z,97456.16
2018-12-16T01:56:49.694Z,97451.97
2018-12-16T01:59:17.161Z,97444.45
2018-12-16T02:01:46.676Z,97440.06
2018-12-16T02:04:14.151Z,97432.55
2018-12-16T02:06:41.632Z,97432.22
2018-12-16T02:09:11.111Z,97426.08
2018-12-16T02:11:38.891Z,97437.50
2018-12-16T02:14:06.418Z,97436.64
2018-12-16T02:16:34.372Z,97442.59
2018-12-16T02:19:01.859Z,97447.36
2018-12-16T02:21:30.266Z,97440.37
2018-12-16T02:23:57.737Z,97453.23
2018-12-16T02:26:25.221Z,97443.05
2018-12-16T02:28:52.715Z,97452.12
2018-12-16T02:31:20.198Z,97464.25
2018-12-16T02:33:47.695Z,97465.84
2018-12-16T02:36:15.217Z,97463.47
2018-12-16T02:38:42.694Z,97453.61
2018-12-16T02:41:10.182Z,97452.60
2018-12-16T02:43:37.662Z,97451.04
2018-12-16T02:46:05.147Z,97448.09
2018-12-16T02:48:32.637Z,97444.71
2018-12-16T02:51:00.115Z,97443.15
2018-12-16T02:53:27.590Z,97443.48
2018-12-16T02:55:55.089Z,97445.20
2018-12-16T02:58:22.561Z,97442.78
2018-12-16T03:00:50.048Z,97443.52
2018-12-16T03:03:17.562Z,97439.86
2018-12-16T03:05:45.038Z,97441.13
2018-12-16T03:08:12.511Z,97445.33
2018-12-16T03:10:39.987Z,97434.98
2018-12-16T03:13:07.463Z,97427.58
2018-12-16T03:15:34.960Z,97422.30
2018-12-16T03:18:02.434Z,97420.45
2018-12-16T03:20:29.926Z,97417.11
2018-12-16T03:22:57.398Z,97409.09
2018-12-16T03:25:24.883Z,97403.94
2018-12-16T03:27:52.374Z,97400.56
2018-12-16T03:30:19.854Z,97397.89
2018-12-16T03:32:47.362Z,97403.13
2018-12-16T03:35:14.959Z,97402.09
2018-12-16T03:37:42.461Z,97407.59
2018-12-16T03:40:09.941Z,97405.35
2018-12-16T03:42:37.420Z,97405.72
2018-12-16T03:45:04.897Z,97399.73
2018-12-16T03:47:32.373Z,97395.01
2018-12-16T03:49:59.864Z,97387.70
2018-12-16T03:52:27.336Z,97378.61
2018-12-16T03:54:54.841Z,97370.72
2018-12-16T03:57:22.454Z,97358.38
2018-12-16T03:59:49.957Z,97353.59
2018-12-16T04:02:17.435Z,97343.20
2018-12-16T04:04:44.908Z,97335.50
2018-12-16T04:07:12.388Z,97339.36
2018-12-16T04:09:39.876Z,97336.72
2018-12-16T04:12:07.374Z,97338.69
2018-12-16T04:14:34.865Z,97332.07
2018-12-16T04:17:02.363Z,97330.84
2018-12-16T04:19:29.834Z,97335.25
2018-12-16T04:21:57.333Z,97341.42
2018-12-16T04:24:24.805Z,97343.01
2018-12-16T04:26:52.283Z,97344.65
2018-12-16T04:29:19.770Z,97352.38
2018-12-16T04:31:47.264Z,97347.81
2018-12-16T04:34:14.765Z,97344.00
2018-12-16T04:36:42.252Z,97338.91
2018-12-16T04:39:09.723Z,97334.83
2018-12-16T04:41:37.195Z,97337.77
2018-12-16T04:44:04.675Z,97337.98
2018-12-16T04:46:32.147Z,97342.05
2018-12-16T04:48:59.621Z,97346.80
2018-12-16T04:51:27.141Z,97339.63
2018-12-16T04:53:54.623Z,97011.86
2018-12-16T04:56:22.126Z,97322.95
2018-12-16T04:58:49.619Z,97318.20
2018-12-16T05:01:17.107Z,97325.60
2018-12-16T05:03:44.600Z,97317.88
2018-12-16T05:06:12.102Z,97319.09
2018-12-16T05:08:39.569Z,97307.86
2018-12-16T05:11:07.069Z,97305.41
2018-12-16T05:13:34.578Z,97299.07
2018-12-16T05:16:02.054Z,97304.34
2018-12-16T05:18:29.554Z,97300.83
2018-12-16T05:20:57.039Z,97298.20
2018-12-16T05:23:24.517Z,97306.09
2018-12-16T05:25:51.999Z,97308.38
2018-12-16T05:28:19.475Z,97309.28
2018-12-16T05:30:47.016Z,97301.20
2018-12-16T05:33:14.500Z,97290.48
2018-12-16T05:35:41.983Z,97287.66
2018-12-16T05:38:09.463Z,97276.38
2018-12-16T05:40:36.934Z,97277.95
2018-12-16T05:43:04.419Z,97284.05
2018-12-16T05:45:31.891Z,97284.09
2018-12-16T05:47:59.396Z,97279.53
2018-12-16T05:50:26.877Z,97270.77
2018-12-16T05:52:54.347Z,97286.40
2018-12-16T05:55:21.854Z,97287.58
2018-12-16T05:57:49.362Z,97289.32
2018-12-16T06:00:16.834Z,97287.58
2018-12-16T06:02:44.319Z,97281.66
2018-12-16T06:05:11.840Z,97268.67
2018-12-16T06:07:39.364Z,97268.69
2018-12-16T06:10:06.930Z,97277.80
2018-12-16T06:12:34.465Z,97282.67
2018-12-16T06:15:01.945Z,97277.62
2018-12-16T06:17:29.438Z,97280.95
2018-12-16T06:19:57.914Z,97275.68
2018-12-16T06:22:25.415Z,97272.37
2018-12-16T06:24:52.882Z,97269.36
2018-12-16T06:27:20.371Z,97270.08
2018-12-16T06:29:48.141Z,97262.88
2018-12-16T06:32:15.633Z,97261.51
2018-12-16T06:34:43.118Z,97256.58
2018-12-16T06:37:10.709Z,97243.39
2018-12-16T06:39:38.210Z,97239.87
2018-12-16T06:42:05.710Z,97239.89
2018-12-16T06:44:33.186Z,97248.66
2018-12-16T06:47:00.667Z,97249.19
2018-12-16T06:49:28.159Z,97250.27
2018-12-16T06:51:55.660Z,97002.53
2018-12-16T06:54:23.152Z,97258.69
2018-12-16T06:57:00.364Z,97257.29
2018-12-16T06:59:27.903Z,97262.03
2018-12-16T07:01:55.385Z,97270.98
2018-12-16T07:04:22.893Z,97273.62
2018-12-16T07:06:50.519Z,97273.78
2018-12-16T07:09:17.996Z,97264.98
2018-12-16T07:11:45.503Z,97264.63
2018-12-16T07:14:13.017Z,97260.77
2018-12-16T07:16:40.697Z,97263.40
2018-12-16T07:19:08.422Z,97270.43
2018-12-16T07:21:35.928Z,97281.84
2018-12-16T07:24:09.241Z,97279.56
2018-12-16T07:26:33.009Z,97276.23
2018-12-16T07:29:00.538Z,97275.19
2018-12-16T07:31:28.136Z,97270.45
2018-12-16T07:33:55.734Z,97266.94
2018-12-16T07:36:23.213Z,97269.91
2018-12-16T07:38:50.738Z,97274.33
2018-12-16T07:41:18.239Z,97282.58
2018-12-16T07:43:45.884Z,97281.17
2018-12-16T07:46:13.441Z,97278.41
2018-12-16T07:48:41.067Z,97283.84
2018-12-16T07:51:08.671Z,97273.66
2018-12-16T07:53:36.172Z,97266.11
2018-12-16T07:56:03.795Z,97257.67
2018-12-16T07:58:31.472Z,97259.25
2018-12-16T08:00:59.076Z,97251.86
2018-12-16T08:03:26.671Z,97253.27
2018-12-16T08:05:54.147Z,97244.47
2018-12-16T08:08:21.763Z,97237.09
2018-12-16T08:10:49.238Z,97238.12
2018-12-16T08:13:16.706Z,97248.69
2018-12-16T08:15:44.197Z,97244.46
2018-12-16T08:18:11.673Z,97247.23
2018-12-16T08:20:39.181Z,97251.83
2018-12-16T08:23:06.754Z,97259.19
2018-12-16T08:25:34.261Z,97258.27
2018-12-16T08:28:01.733Z,97268.98
2018-12-16T08:30:29.300Z,97261.77
2018-12-16T08:32:56.786Z,97254.92
2018-12-16T08:35:24.251Z,97253.48
2018-12-16T08:37:51.715Z,97258.03
2018-12-16T08:40:21.226Z,97256.59
2018-12-16T08:42:48.726Z,97250.59
2018-12-16T08:45:16.252Z,97257.27
2018-12-16T08:47:43.731Z,97255.48
2018-12-16T08:50:11.194Z,97256.92
2018-12-16T08:52:38.669Z,97260.41
2018-12-16T08:55:06.141Z,97263.59
2018-12-16T08:57:33.620Z,97264.61
2018-12-16T09:00:01.089Z,97267.41
2018-12-16T09:02:28.564Z,97270.38
2018-12-16T09:04:56.061Z,97271.06
2018-12-16T09:07:23.531Z,97266.47
2018-12-16T09:09:51.025Z,97267.69
2018-12-16T09:12:19.470Z,97259.23
2018-12-16T09:14:52.765Z,97240.97
2018-12-16T09:17:20.247Z,97245.91
2018-12-16T09:19:47.721Z,97240.81
2018-12-16T09:22:15.218Z,97237.67
2018-12-16T09:24:42.703Z,97247.31
2018-12-16T09:27:10.187Z,97249.94
2018-12-16T09:29:37.667Z,97239.19
2018-12-16T09:32:05.145Z,97233.92
2018-12-16T09:34:32.641Z,97237.61
2018-12-16T09:37:00.115Z,97242.31
2018-12-16T09:39:27.604Z,97236.81
2018-12-16T09:41:55.104Z,97237.82
2018-12-16T09:44:22.586Z,97235.85
2018-12-16T09:46:50.120Z,97233.55
2018-12-16T09:49:17.599Z,97237.00
2018-12-16T09:51:45.067Z,97234.14
2018-12-16T09:54:12.588Z,97236.92
2018-12-16T09:56:40.059Z,97233.50
2018-12-16T09:59:07.565Z,97231.69
2018-12-16T10:01:35.047Z,97226.39
2018-12-16T10:04:02.582Z,97227.73
2018-12-16T10:06:30.121Z,97231.26
2018-12-16T10:08:57.619Z,97233.16
2018-12-16T10:11:25.090Z,97234.70
2018-12-16T10:13:54.501Z,97231.31
2018-12-16T10:16:21.973Z,97231.41
2018-12-16T10:18:50.445Z,97229.59
2018-12-16T10:21:19.961Z,97227.85
2018-12-16T10:23:51.131Z,97225.34
2018-12-16T10:26:21.725Z,97223.86
2018-12-16T10:28:49.255Z,97227.32
2018-12-16T10:31:17.025Z,97231.83
2018-12-16T10:33:45.715Z,97222.59
2018-12-16T10:36:15.114Z,97219.91
2018-12-16T10:38:48.188Z,97220.55
2018-12-16T10:41:16.917Z,97206.03
2018-12-16T10:43:44.445Z,97208.50
2018-12-16T10:46:13.928Z,97204.20
2018-12-16T10:48:45.050Z,97082.24
2018-12-16T10:51:12.585Z,97206.44
2018-12-16T10:53:40.122Z,97206.16
2018-12-16T10:56:07.693Z,97145.98
2018-12-16T10:58:39.084Z,97190.41
2018-12-16T11:01:12.230Z,97184.77
2018-12-16T11:03:39.773Z,97182.80
2018-12-16T11:06:07.348Z,97175.86
2018-12-16T11:08:35.011Z,97174.67
2018-12-16T11:11:02.608Z,97180.93
2018-12-16T11:13:30.134Z,97181.24
2018-12-16T11:15:57.690Z,97181.17
2018-12-16T11:18:25.279Z,97186.66
2018-12-16T11:20:52.839Z,97183.17
2018-12-16T11:23:20.396Z,97185.14
2018-12-16T11:25:48.197Z,97182.55
2018-12-16T11:28:15.783Z,97181.69
2018-12-16T11:30:43.371Z,97180.38
2018-12-16T11:33:10.902Z,97189.42
2018-12-16T11:35:38.573Z,97190.84
2018-12-16T11:38:06.153Z,97196.61
2018-12-16T11:40:33.753Z,97194.52
2018-12-16T11:43:01.366Z,97195.06
2018-12-16T11:45:28.953Z,97191.31
2018-12-16T11:47:56.767Z,97189.57
2018-12-16T11:50:24.367Z,97188.80
2018-12-16T11:52:51.907Z,97191.05
2018-12-16T11:55:19.547Z,97197.23
2018-12-16T11:57:47.041Z,97186.84
2018-12-16T12:00:14.598Z,97183.55
2018-12-16T12:02:42.190Z,97184.78
2018-12-16T12:05:09.734Z,97189.03
2018-12-16T12:07:37.339Z,97186.72
2018-12-16T12:10:05.399Z,97183.32
2018-12-16T12:12:32.872Z,97186.80
2018-12-16T12:15:00.362Z,97178.03
2018-12-16T12:17:27.827Z,97179.11
2018-12-16T12:19:55.308Z,97184.72
2018-12-16T12:22:22.778Z,97176.64
2018-12-16T12:24:50.246Z,97163.92
2018-12-16T12:27:18.692Z,97161.65
2018-12-16T12:29:46.168Z,97169.19
2018-12-16T12:32:13.639Z,97162.08
2018-12-16T12:34:41.118Z,97169.58
2018-12-16T12:37:08.590Z,97174.33
2018-12-16T12:39:36.058Z,97171.70
2018-12-16T12:42:03.539Z,97170.11
2018-12-16T12:44:31.029Z,97163.78
2018-12-16T12:46:58.507Z,97171.66
2018-12-16T12:49:25.975Z,97154.39
2018-12-16T12:51:53.448Z,97154.55
2018-12-16T12:54:20.967Z,97155.20
2018-12-16T12:56:48.454Z,97153.26
2018-12-16T12:59:15.924Z,97154.38
2018-12-16T13:01:43.399Z,97148.05
2018-12-16T13:04:10.866Z,97145.38
2018-12-16T13:06:38.337Z,97147.00
2018-12-16T13:09:06.499Z,97156.66
2018-12-16T13:11:34.946Z,97155.96
2018-12-16T13:14:03.426Z,97156.66
2018-12-16T13:16:30.889Z,97169.83
2018-12-16T13:18:58.360Z,97173.44
2018-12-16T13:21:25.817Z,97178.19
2018-12-16T13:23:54.303Z,97179.08
2018-12-16T13:26:21.978Z,97178.19
2018-12-16T13:28:54.746Z,97175.36
2018-12-16T13:31:22.223Z,97171.12
2018-12-16T13:33:52.748Z,97174.48
2018-12-16T13:36:21.329Z,97176.13
2018-12-16T13:38:48.803Z,97171.54
2018-12-16T13:41:16.306Z,97175.98
2018-12-16T13:43:43.770Z,97177.88
2018-12-16T13:46:11.243Z,97179.14
2018-12-16T13:48:38.717Z,97177.06
2018-12-16T13:51:06.418Z,97173.38
2018-12-16T13:53:34.983Z,97173.34
2018-12-16T13:56:02.458Z,97180.38
2018-12-16T13:58:29.926Z,97184.25
2018-12-16T14:00:57.393Z,97180.53
2018-12-16T14:03:24.865Z,97174.89
2018-12-16T14:05:52.922Z,97180.92
2018-12-16T14:08:20.421Z,97183.23
2018-12-16T14:10:47.900Z,97184.62
2018-12-16T14:13:15.395Z,97191.16
2018-12-16T14:15:42.885Z,97200.54
2018-12-16T14:18:10.354Z,97201.46
2018-12-16T14:20:37.874Z,97201.46
2018-12-16T14:23:05.349Z,97202.16
2018-12-16T14:25:32.824Z,97194.55
2018-12-16T14:28:00.327Z,97206.72
2018-12-16T14:30:27.821Z,97208.41
2018-12-16T14:32:55.286Z,97217.41
2018-12-16T14:35:22.940Z,97211.73
2018-12-16T14:37:50.414Z,97213.66
2018-12-16T14:40:19.929Z,97218.38
2018-12-16T14:45:41.799Z,97222.50
2018-12-16T14:48:09.417Z,97220.22
2018-12-16T14:50:37.042Z,97228.72
2018-12-16T14:53:04.659Z,97233.47
2018-12-16T14:55:32.251Z,97235.78
2018-12-16T14:57:59.859Z,97235.75
2018-12-16T15:00:27.592Z,97236.45
2018-12-16T15:02:55.183Z,97243.86
2018-12-16T15:05:27.277Z,97245.80
2018-12-16T15:07:54.902Z,97249.03
2018-12-16T15:10:22.507Z,97254.16
2018-12-16T15:12:50.211Z,97247.64
2018-12-16T15:15:18.583Z,97246.02
2018-12-16T15:17:46.221Z,97245.33
2018-12-16T15:20:13.775Z,97255.20
2018-12-16T15:22:41.369Z,97251.53
2018-12-16T15:25:08.899Z,97250.14
2018-12-16T15:27:36.454Z,97245.77
2018-12-16T15:30:06.836Z,97250.17
2018-12-16T15:32:34.453Z,97239.45
2018-12-16T15:35:01.927Z,97236.83
2018-12-16T15:37:29.398Z,97242.84
2018-12-16T15:39:56.870Z,97254.79
2018-12-16T15:42:24.336Z,97263.25
2018-12-16T15:44:51.842Z,97261.29
2018-12-16T15:47:20.230Z,97262.75
2018-12-16T15:49:47.694Z,97262.05
2018-12-16T15:52:15.205Z,97271.58
2018-12-16T15:54:42.676Z,97263.66
2018-12-16T15:57:10.250Z,97270.59
2018-12-16T15:59:37.747Z,97278.22
2018-12-16T16:02:05.218Z,97279.70
2018-12-16T16:04:32.681Z,97276.48
2018-12-16T16:07:00.150Z,97272.75
2018-12-16T16:09:27.619Z,97270.05
2018-12-16T16:11:55.100Z,97272.80
2018-12-16T16:14:22.590Z,97266.84
2018-12-16T16:16:50.063Z,97275.81
2018-12-16T16:19:17.567Z,97278.28
2018-12-16T16:21:45.029Z,97279.30
2018-12-16T16:24:12.499Z,97274.01
2018-12-16T16:26:39.982Z,97277.37
2018-12-16T16:29:07.459Z,97278.55
2018-12-16T16:31:34.960Z,97282.73
2018-12-16T16:34:02.436Z,97285.34
2018-12-16T16:36:29.907Z,97301.40
2018-12-16T16:38:57.382Z,97292.19
2018-12-16T16:41:24.847Z,97293.04
2018-12-16T16:43:52.315Z,97289.27
2018-12-16T16:46:19.784Z,97291.23
2018-12-16T16:48:47.254Z,97292.72
2018-12-16T16:51:14.756Z,97293.58
2018-12-16T16:53:42.226Z,97298.02
2018-12-16T16:56:09.695Z,97309.61
2018-12-16T16:58:37.183Z,97310.53
2018-12-16T17:01:04.751Z,97304.86
2018-12-16T17:03:32.283Z,97306.09
2018-12-16T17:05:59.750Z,97301.88
2018-12-16T17:08:27.235Z,97297.98
2018-12-16T17:10:54.706Z,97298.09
2018-12-16T17:13:22.179Z,97299.31
2018-12-16T17:15:49.646Z,97292.16
2018-12-16T17:18:17.177Z,97294.81
2018-12-16T17:20:44.646Z,97295.13
2018-12-16T17:23:12.148Z,97300.08
2018-12-16T17:25:39.614Z,97291.08
2018-12-16T17:28:07.101Z,97291.39
2018-12-16T17:30:34.575Z,97296.69
2018-12-16T17:33:02.043Z,97297.77
2018-12-16T17:35:29.539Z,97298.66
2018-12-16T17:37:57.003Z,97296.31
2018-12-16T17:40:24.496Z,97299.89
2018-12-16T17:42:51.972Z,97299.59
2018-12-16T17:45:19.444Z,97297.28
2018-12-16T17:47:46.906Z,97303.84
2018-12-16T17:50:14.377Z,97304.63
2018-12-16T17:52:41.867Z,97308.95
2018-12-16T17:55:09.337Z,97310.02
2018-12-16T17:57:36.819Z,97310.02
2018-12-16T18:00:06.392Z,97312.47
2018-12-16T18:02:33.871Z,97317.91
2018-12-16T18:05:01.343Z,97314.86
2018-12-16T18:07:28.817Z,97309.10
2018-12-16T18:09:56.295Z,97307.08
2018-12-16T18:12:23.810Z,97306.02
2018-12-16T18:14:51.310Z,97307.75
2018-12-16T18:17:18.812Z,97310.59
2018-12-16T18:19:46.286Z,97306.91
2018-12-16T18:22:14.094Z,97131.98
2018-12-16T18:24:41.863Z,97300.88
2018-12-16T18:27:09.330Z,97305.42
2018-12-16T18:29:36.821Z,97297.28
2018-12-16T18:32:04.671Z,97294.28
2018-12-16T18:34:32.150Z,97293.05
2018-12-16T18:36:59.663Z,97298.84
2018-12-16T18:39:27.198Z,97313.98
2018-12-16T18:41:57.095Z,97297.02
2018-12-16T18:44:24.549Z,97297.91
2018-12-16T18:46:52.027Z,97298.58
2018-12-16T18:49:19.522Z,97301.20
2018-12-16T18:51:47.024Z,97311.42
2018-12-16T18:54:15.174Z,97319.53
2018-12-16T18:56:42.662Z,97322.33
2018-12-16T18:59:10.199Z,97314.38
2018-12-16T19:01:37.741Z,97324.47
2018-12-16T19:04:05.331Z,97312.30
2018-12-16T19:06:33.227Z,97323.40
2018-12-16T19:09:00.708Z,97320.44
2018-12-16T19:11:28.193Z,97315.12
2018-12-16T19:13:55.677Z,97324.95
2018-12-16T19:16:23.180Z,96262.24
2018-12-16T19:18:50.800Z,97324.17
2018-12-16T19:21:18.415Z,97316.09
2018-12-16T19:23:45.903Z,97320.49
2018-12-16T19:26:13.376Z,97331.75
2018-12-16T19:28:40.845Z,97328.23
2018-12-16T19:31:08.387Z,97326.30
2018-12-16T19:33:35.889Z,97320.12
2018-12-16T19:36:04.026Z,97321.35
2018-12-16T19:38:31.511Z,97315.70
2018-12-16T19:40:58.990Z,97319.58
2018-12-16T19:43:30.350Z,97276.80
2018-12-16T19:45:57.855Z,97330.27
2018-12-16T19:48:25.329Z,97333.05
2018-12-16T19:50:52.811Z,97332.90
2018-12-16T19:53:20.367Z,97279.27
2018-12-16T19:55:47.871Z,97327.16
2018-12-16T19:58:15.368Z,97328.36
2018-12-16T20:00:42.890Z,97334.37
2018-12-16T20:03:18.059Z,97334.47
2018-12-16T20:05:51.181Z,97330.28
2018-12-16T20:08:18.739Z,97322.22
2018-12-16T20:10:46.225Z,97328.58
2018-12-16T20:13:14.711Z,97326.09
2018-12-16T20:15:43.386Z,97327.67
2018-12-16T20:18:10.935Z,97327.08
2018-12-16T20:20:39.424Z,97329.30
2018-12-16T20:23:06.930Z,97335.11
2018-12-16T20:25:34.419Z,97337.20
2018-12-16T20:28:01.930Z,97344.45
2018-12-16T20:30:29.413Z,97343.30
2018-12-16T20:32:56.929Z,97342.73
2018-12-16T20:35:24.735Z,97345.21
2018-12-16T20:37:52.604Z,97345.66
2018-12-16T20:40:20.137Z,97345.50
2018-12-16T20:42:48.299Z,97351.69
2018-12-16T20:45:15.788Z,97349.67
2018-12-16T20:47:45.202Z,97343.99
2018-12-16T20:50:12.681Z,97349.26
2018-12-16T20:52:40.177Z,97352.65
2018-12-16T20:55:07.721Z,97353.56
2018-12-16T20:57:35.206Z,97352.83
2018-12-16T21:00:03.214Z,97355.44
2018-12-16T21:02:30.712Z,97349.39
2018-12-16T21:04:58.225Z,97353.77
2018-12-16T21:07:25.776Z,97360.45
2018-12-16T21:09:53.275Z,97361.91
2018-12-16T21:12:27.140Z,97369.23
2018-12-16T21:15:00.263Z,97369.81
2018-12-16T21:17:33.344Z,97371.19
2018-12-16T21:20:00.840Z,97369.39
2018-12-16T21:22:33.115Z,97371.86
2018-12-16T21:25:00.605Z,97377.51
2018-12-16T21:27:29.034Z,97375.36
2018-12-16T21:29:57.527Z,97367.21
2018-12-16T21:32:25.015Z,97371.11
2018-12-16T21:34:52.536Z,97362.29
2018-12-16T21:37:20.022Z,97367.55
2018-12-16T21:39:47.493Z,97372.72
2018-12-16T21:42:15.363Z,97373.64
2018-12-16T21:44:42.837Z,97374.81
2018-12-16T21:47:10.336Z,97379.59
2018-12-16T21:49:37.870Z,97375.70
2018-12-16T21:52:05.352Z,97373.07
2018-12-16T21:54:32.871Z,97383.28
2018-12-16T21:57:00.391Z,97369.36
2018-12-16T21:59:27.970Z,97376.70
2018-12-16T22:01:55.469Z,97378.87
2018-12-16T22:04:23.070Z,97372.03
2018-12-16T22:06:50.830Z,97372.21
2018-12-16T22:09:19.302Z,97376.48
2018-12-16T22:11:46.785Z,97370.15
2018-12-16T22:14:14.283Z,97368.91
2018-12-16T22:16:43.739Z,97370.66
2018-12-16T22:19:11.207Z,97130.31
2018-12-16T22:21:38.723Z,97362.91
2018-12-16T22:24:06.225Z,97369.55
2018-12-16T22:26:33.914Z,97365.95
2018-12-16T22:29:01.441Z,97379.50
2018-12-16T22:31:28.922Z,97378.61
2018-12-16T22:33:56.415Z,97383.72
2018-12-16T22:36:23.898Z,97385.44
2018-12-16T22:38:51.379Z,97388.06
2018-12-16T22:41:18.862Z,97381.00
2018-12-16T22:43:46.522Z,97384.86
2018-12-16T22:46:14.390Z,97384.84
2018-12-16T22:48:42.394Z,97384.27
2018-12-16T22:51:09.931Z,97383.58
2018-12-16T22:53:37.498Z,97382.12
2018-12-16T22:56:04.987Z,97381.93
2018-12-16T22:58:32.493Z,97381.02
2018-12-16T23:01:05.401Z,97381.36
2018-12-16T23:03:32.898Z,97377.33
2018-12-16T23:06:02.274Z,97381.77
2018-12-16T23:08:29.824Z,97382.98
2018-12-16T23:10:57.303Z,97391.41
2018-12-16T23:13:24.777Z,97387.52
2018-12-16T23:15:52.244Z,97385.77
2018-12-16T23:18:19.796Z,97391.57
2018-12-16T23:20:47.346Z,97389.26
2018-12-16T23:23:14.817Z,97392.94
2018-12-16T23:25:42.302Z,97394.53
2018-12-16T23:28:09.783Z,97391.86
2018-12-16T23:30:37.283Z,97395.00
2018-12-16T23:33:04.788Z,97397.29
2018-12-16T23:35:32.290Z,97397.86
2018-12-16T23:37:59.789Z,97399.03
2018-12-16T23:40:27.258Z,97391.77
2018-12-16T23:42:54.775Z,97396.38
2018-12-16T23:45:22.246Z,97412.27
2018-12-16T23:47:49.739Z,97397.92
2018-12-16T23:50:17.261Z,97395.89
2018-12-16T23:52:44.736Z,97397.00
2018-12-16T23:55:12.218Z,97388.75
2018-12-16T23:57:39.702Z,97393.81
